createdAt,value
2022-11-15T00:00:49.303Z,6.65
2022-11-15T00:03:21.276Z,7.63
2022-11-15T00:05:48.339Z,6.35
2022-11-15T00:08:15.003Z,7.03
2022-11-15T00:10:42.015Z,8.23
2022-11-15T00:13:10.476Z,7.15
2022-11-15T00:18:05.169Z,7.00
2022-11-15T00:20:32.383Z,9.10
2022-11-15T00:22:58.783Z,8.15
2022-11-15T00:25:25.251Z,6.82
2022-11-15T00:27:52.696Z,8.10
2022-11-15T00:30:19.075Z,8.00
2022-11-15T00:32:45.496Z,8.13
2022-11-15T00:35:11.909Z,8.57
2022-11-15T00:37:38.272Z,6.60
2022-11-15T00:40:05.152Z,9.25
2022-11-15T00:42:31.567Z,7.60
2022-11-15T00:44:58.075Z,7.10
2022-11-15T00:47:24.458Z,8.35
2022-11-15T00:49:50.859Z,7.85
2022-11-15T00:52:17.237Z,8.68
2022-11-15T00:54:43.684Z,6.80
2022-11-15T00:57:10.210Z,9.40
2022-11-15T00:59:36.687Z,10.02
2022-11-15T01:02:03.164Z,8.73
2022-11-15T01:04:29.591Z,8.02
2022-11-15T01:06:56.126Z,10.93
2022-11-15T01:09:22.837Z,7.55
2022-11-15T01:11:49.255Z,7.88
2022-11-15T01:14:15.663Z,6.43
2022-11-15T01:16:43.304Z,8.52
2022-11-15T01:19:09.690Z,7.55
2022-11-15T01:21:36.078Z,7.03
2022-11-15T01:24:02.536Z,16.02
2022-11-15T01:26:28.955Z,7.18
2022-11-15T01:28:55.375Z,6.97
2022-11-15T01:31:22.336Z,6.82
2022-11-15T01:33:49.527Z,7.53
2022-11-15T01:36:18.885Z,7.22
2022-11-15T01:38:45.541Z,8.23
2022-11-15T01:41:22.121Z,7.47
2022-11-15T01:44:18.403Z,6.90
2022-11-15T01:46:48.384Z,8.35
2022-11-15T01:49:21.823Z,7.75
2022-11-15T01:51:48.471Z,7.45
2022-11-15T01:54:18.104Z,10.23
2022-11-15T01:56:54.127Z,7.90
2022-11-15T01:59:20.937Z,6.88
2022-11-15T02:01:47.956Z,7.38
2022-11-15T02:04:17.892Z,6.32
2022-11-15T02:06:45.306Z,8.30
2022-11-15T02:09:12.634Z,7.55
2022-11-15T02:11:39.203Z,12.57
2022-11-15T02:14:07.051Z,8.73
2022-11-15T02:17:20.224Z,8.60
2022-11-15T02:20:05.478Z,8.93
2022-11-15T02:23:04.286Z,7.78
2022-11-15T02:25:36.724Z,7.60
2022-11-15T02:28:26.480Z,8.32
2022-11-15T02:31:11.806Z,8.13
2022-11-15T02:33:50.290Z,10.88
2022-11-15T02:36:29.790Z,7.82
2022-11-15T02:39:24.311Z,9.00
2022-11-15T02:41:58.431Z,7.50
2022-11-15T02:44:33.654Z,8.35
2022-11-15T02:47:14.211Z,13.82
2022-11-15T02:49:44.663Z,7.50
2022-11-15T02:52:16.626Z,9.30
2022-11-15T02:54:43.013Z,8.00
2022-11-15T02:57:17.583Z,8.48
2022-11-15T03:00:04.920Z,9.75
2022-11-15T03:02:40.095Z,7.35
2022-11-15T03:05:24.837Z,7.78
2022-11-15T03:08:02.465Z,8.20
2022-11-15T03:10:41.394Z,7.55
2022-11-15T03:13:22.534Z,8.75
2022-11-15T03:16:02.040Z,8.55
2022-11-15T03:18:45.294Z,7.82
2022-11-15T03:21:14.183Z,6.75
2022-11-15T03:23:40.957Z,6.82
2022-11-15T03:26:12.632Z,7.45
2022-11-15T03:28:48.283Z,7.35
2022-11-15T03:31:36.285Z,8.13
2022-11-15T03:34:06.896Z,7.35
2022-11-15T03:36:34.519Z,7.07
2022-11-15T03:39:06.290Z,7.25
2022-11-15T03:41:42.700Z,7.68
2022-11-15T03:44:28.051Z,8.18
2022-11-15T03:47:24.551Z,12.13
2022-11-15T03:50:00.293Z,8.35
2022-11-15T03:52:26.827Z,7.20
2022-11-15T03:54:58.142Z,9.20
2022-11-15T03:57:24.793Z,9.73
2022-11-15T03:59:51.247Z,7.90
2022-11-15T04:02:17.702Z,8.02
2022-11-15T04:04:44.182Z,7.07
2022-11-15T04:07:10.931Z,5.85
2022-11-15T04:09:57.855Z,6.45
2022-11-15T04:12:31.746Z,6.18
2022-11-15T04:15:09.463Z,8.05
2022-11-15T04:17:44.641Z,8.90
2022-11-15T04:20:34.568Z,6.22
2022-11-15T04:23:21.366Z,6.50
2022-11-15T04:25:51.104Z,7.65
2022-11-15T04:28:17.752Z,6.25
2022-11-15T04:30:44.234Z,5.78
2022-11-15T04:33:10.632Z,5.72
2022-11-15T04:35:37.168Z,7.03
2022-11-15T04:38:05.379Z,9.82
2022-11-15T04:40:31.889Z,9.30
2022-11-15T04:43:03.570Z,8.75
2022-11-15T04:45:30.963Z,6.57
2022-11-15T04:47:57.450Z,7.95
2022-11-15T04:50:23.868Z,7.10
2022-11-15T04:52:55.072Z,6.63
2022-11-15T04:55:21.547Z,5.85
2022-11-15T04:57:47.993Z,6.72
2022-11-15T05:00:17.098Z,5.78
2022-11-15T05:03:01.894Z,8.73
2022-11-15T05:05:28.437Z,8.63
2022-11-15T05:07:54.840Z,6.43
2022-11-15T05:10:21.392Z,5.93
2022-11-15T05:12:47.791Z,9.77
2022-11-15T05:15:14.217Z,5.80
2022-11-15T05:17:40.658Z,6.18
2022-11-15T05:20:07.682Z,5.47
2022-11-15T05:22:34.090Z,6.60
2022-11-15T05:25:00.575Z,6.88
2022-11-15T05:27:27.041Z,7.22
2022-11-15T05:29:53.493Z,5.90
2022-11-15T05:32:19.910Z,6.63
2022-11-15T05:34:47.390Z,6.38
2022-11-15T05:37:14.858Z,6.35
2022-11-15T05:39:41.294Z,5.32
2022-11-15T05:42:13.648Z,6.43
2022-11-15T05:44:44.653Z,8.38
2022-11-15T05:47:15.287Z,6.13
2022-11-15T05:49:45.462Z,8.75
2022-11-15T05:52:15.616Z,6.05
2022-11-15T05:54:42.408Z,6.93
2022-11-15T05:57:08.943Z,7.90
2022-11-15T05:59:36.111Z,6.35
2022-11-15T06:02:02.636Z,6.15
2022-11-15T06:04:29.217Z,11.85
2022-11-15T06:06:55.725Z,5.50
2022-11-15T06:09:22.131Z,8.50
2022-11-15T06:11:49.070Z,11.60
2022-11-15T06:14:15.544Z,5.85
2022-11-15T06:16:42.049Z,6.10
2022-11-15T06:19:08.809Z,5.63
2022-11-15T06:21:35.278Z,7.28
2022-11-15T06:24:02.228Z,5.80
2022-11-15T06:26:28.629Z,7.53
2022-11-15T06:28:55.035Z,6.50
2022-11-15T06:31:21.452Z,9.77
2022-11-15T06:33:48.126Z,6.20
2022-11-15T06:36:17.764Z,6.05
2022-11-15T06:38:45.458Z,7.97
2022-11-15T06:41:13.263Z,6.03
2022-11-15T06:43:40.815Z,6.30
2022-11-15T06:46:07.876Z,7.20
2022-11-15T06:48:35.255Z,8.60
2022-11-15T06:51:03.468Z,6.78
2022-11-15T06:53:30.968Z,5.53
2022-11-15T06:56:08.065Z,5.68
2022-11-15T06:58:34.680Z,5.18
2022-11-15T07:01:03.726Z,5.75
2022-11-15T07:03:30.842Z,5.60
2022-11-15T07:06:02.722Z,5.43
2022-11-15T07:08:33.194Z,8.13
2022-11-15T07:11:02.635Z,5.97
2022-11-15T07:13:31.521Z,5.68
2022-11-15T07:15:58.105Z,6.43
2022-11-15T07:18:24.859Z,6.13
2022-11-15T07:20:51.269Z,6.05
2022-11-15T07:23:17.692Z,6.93
2022-11-15T07:25:44.287Z,6.13
2022-11-15T07:28:11.115Z,5.32
2022-11-15T07:30:41.275Z,4.63
2022-11-15T07:33:11.405Z,15.82
2022-11-15T07:35:37.905Z,9.45
2022-11-15T07:38:04.674Z,7.05
2022-11-15T07:40:32.891Z,8.18
2022-11-15T07:43:03.972Z,8.05
2022-11-15T07:45:30.662Z,6.25
2022-11-15T07:47:57.616Z,7.07
2022-11-15T07:50:25.110Z,4.90
2022-11-15T07:52:56.306Z,12.88
2022-11-15T07:55:24.015Z,5.55
2022-11-15T07:57:50.690Z,8.88
2022-11-15T08:00:17.594Z,6.63
2022-11-15T08:02:44.101Z,10.13
2022-11-15T08:05:10.713Z,8.15
2022-11-15T08:07:38.971Z,5.25
2022-11-15T08:12:33.400Z,13.80
2022-11-15T08:14:59.844Z,9.15
2022-11-15T08:17:26.325Z,8.00
2022-11-15T08:19:52.832Z,5.85
2022-11-15T08:22:19.624Z,6.90
2022-11-15T08:24:46.037Z,10.80
2022-11-15T08:27:18.596Z,5.85
2022-11-15T08:29:45.997Z,8.95
2022-11-15T08:32:12.827Z,7.57
2022-11-15T08:34:39.496Z,10.45
2022-11-15T08:37:06.110Z,7.53
2022-11-15T08:39:33.045Z,8.02
2022-11-15T08:42:00.230Z,14.50
2022-11-15T08:44:26.847Z,7.20
2022-11-15T08:46:53.333Z,7.18
2022-11-15T08:49:19.733Z,6.15
2022-11-15T08:51:46.157Z,7.28
2022-11-15T08:54:12.561Z,7.43
2022-11-15T08:56:39.034Z,12.15
2022-11-15T08:59:05.441Z,7.88
2022-11-15T09:01:33.411Z,7.35
2022-11-15T09:03:59.883Z,7.80
2022-11-15T09:06:26.326Z,6.40
2022-11-15T09:08:52.876Z,6.53
2022-11-15T09:11:21.339Z,12.98
2022-11-15T09:13:47.876Z,5.47
2022-11-15T09:16:16.142Z,7.72
2022-11-15T09:21:10.055Z,6.15
2022-11-15T09:23:36.834Z,17.33
2022-11-15T09:26:05.619Z,8.05
2022-11-15T09:28:33.955Z,8.15
2022-11-15T09:31:02.905Z,8.70
2022-11-15T09:33:30.122Z,6.50
2022-11-15T09:36:05.846Z,6.80
2022-11-15T09:38:33.192Z,5.78
2022-11-15T09:41:39.598Z,9.05
2022-11-15T09:44:28.812Z,6.10
2022-11-15T09:47:26.303Z,5.30
2022-11-15T09:49:59.533Z,6.93
2022-11-15T09:52:26.242Z,8.20
2022-11-15T09:54:55.512Z,8.43
2022-11-15T09:57:33.428Z,7.57
2022-11-15T10:00:47.672Z,6.85
2022-11-15T10:03:20.132Z,8.35
2022-11-15T10:05:48.647Z,7.47
2022-11-15T10:08:29.792Z,6.47
2022-11-15T10:11:30.125Z,8.13
2022-11-15T10:13:51.474Z,9.95
2022-11-15T10:16:36.442Z,7.03
2022-11-15T10:19:41.565Z,6.40
2022-11-15T10:22:51.730Z,6.80
2022-11-15T10:25:20.827Z,6.20
2022-11-15T10:27:55.662Z,5.22
2022-11-15T10:30:23.105Z,5.70
2022-11-15T10:32:50.527Z,6.53
2022-11-15T10:35:43.632Z,6.15
2022-11-15T10:38:12.347Z,6.13
2022-11-15T10:40:41.057Z,6.10
2022-11-15T10:43:10.593Z,6.13
2022-11-15T10:45:38.280Z,7.60
2022-11-15T10:48:13.898Z,6.80
2022-11-15T10:50:51.005Z,6.88
2022-11-15T10:53:40.635Z,7.85
2022-11-15T10:56:12.749Z,5.90
2022-11-15T10:58:52.486Z,5.47
2022-11-15T11:01:22.929Z,7.13
2022-11-15T11:04:22.165Z,5.63
2022-11-15T11:06:49.406Z,9.55
2022-11-15T11:09:36.515Z,7.65
2022-11-15T11:12:05.467Z,4.95
2022-11-15T11:14:34.915Z,6.63
2022-11-15T11:17:22.823Z,5.43
2022-11-15T11:20:01.519Z,8.80
2022-11-15T11:22:41.436Z,6.05
2022-11-15T11:25:33.218Z,7.22
2022-11-15T11:28:08.729Z,6.90
2022-11-15T11:30:58.224Z,5.93
2022-11-15T11:33:37.085Z,11.73
2022-11-15T11:36:20.408Z,7.05
2022-11-15T11:39:11.924Z,5.80
2022-11-15T11:41:44.466Z,6.93
2022-11-15T11:44:34.627Z,4.75
2022-11-15T11:47:02.772Z,8.23
2022-11-15T11:49:35.779Z,8.10
2022-11-15T11:52:31.024Z,6.80
2022-11-15T11:55:03.494Z,9.00
2022-11-15T11:57:37.275Z,5.35
2022-11-15T12:00:16.758Z,5.97
2022-11-15T12:02:50.774Z,13.68
2022-11-15T12:05:57.549Z,9.10
2022-11-15T12:11:24.830Z,5.22
2022-11-15T12:13:57.876Z,6.85
2022-11-15T12:16:30.242Z,7.18
2022-11-15T12:19:03.370Z,6.63
2022-11-15T12:21:40.649Z,9.30
2022-11-15T12:24:38.219Z,4.30
2022-11-15T12:27:20.554Z,7.15
2022-11-15T12:29:53.842Z,5.63
2022-11-15T12:32:37.014Z,4.68
2022-11-15T12:35:07.397Z,5.85
2022-11-15T12:37:36.890Z,10.15
2022-11-15T12:40:22.323Z,7.90
2022-11-15T12:43:13.847Z,9.25
2022-11-15T12:45:43.355Z,5.80
2022-11-15T12:48:36.273Z,4.28
2022-11-15T12:51:02.946Z,8.57
2022-11-15T12:53:34.474Z,9.52
2022-11-15T12:56:03.936Z,7.40
2022-11-15T12:58:51.292Z,7.35
2022-11-15T13:01:39.002Z,6.75
2022-11-15T13:04:29.895Z,8.10
2022-11-15T13:07:01.173Z,12.30
2022-11-15T13:09:30.726Z,6.63
2022-11-15T13:11:59.425Z,7.40
2022-11-15T13:14:38.045Z,5.35
2022-11-15T13:17:20.003Z,11.27
2022-11-15T13:19:56.370Z,9.60
2022-11-15T13:22:41.324Z,8.95
2022-11-15T13:25:21.413Z,8.05
2022-11-15T13:27:50.175Z,10.55
2022-11-15T13:30:26.191Z,10.57
2022-11-15T13:32:53.744Z,12.13
2022-11-15T13:35:32.534Z,7.28
2022-11-15T13:38:04.827Z,8.75
2022-11-15T13:40:37.076Z,8.13
2022-11-15T13:43:36.482Z,11.38
2022-11-15T13:46:23.944Z,9.10
2022-11-15T13:51:31.072Z,13.57
2022-11-15T13:54:03.587Z,16.60
2022-11-15T13:56:33.090Z,12.18
2022-11-15T13:58:59.599Z,11.30
2022-11-15T14:01:29.863Z,10.15
2022-11-15T14:04:01.495Z,14.50
2022-11-15T14:06:30.705Z,20.77
2022-11-15T14:09:12.095Z,16.75
2022-11-15T14:11:54.214Z,37.83
2022-11-15T14:14:23.896Z,26.42
2022-11-15T14:16:53.594Z,22.38
2022-11-15T14:19:26.011Z,12.68
2022-11-15T14:22:22.851Z,22.50
2022-11-15T14:25:18.710Z,19.27
2022-11-15T14:28:05.886Z,18.67
2022-11-15T14:30:32.369Z,10.10
2022-11-15T14:32:58.890Z,13.48
2022-11-15T14:35:25.540Z,24.00
2022-11-15T14:37:52.032Z,8.77
2022-11-15T14:40:21.533Z,13.15
2022-11-15T14:42:49.708Z,11.98
2022-11-15T14:45:21.485Z,12.23
2022-11-15T14:47:48.840Z,14.50
2022-11-15T14:50:18.279Z,9.15
2022-11-15T14:52:45.876Z,13.65
2022-11-15T14:55:19.235Z,10.40
2022-11-15T14:57:46.423Z,11.63
2022-11-15T15:00:13.908Z,14.23
2022-11-15T15:02:42.653Z,21.92
2022-11-15T15:05:33.369Z,9.70
2022-11-15T15:08:00.292Z,13.45
2022-11-15T15:10:40.971Z,19.15
2022-11-15T15:13:17.878Z,18.40
2022-11-15T15:15:44.813Z,14.30
2022-11-15T15:18:12.278Z,15.63
2022-11-15T15:20:40.939Z,13.15
2022-11-15T15:23:16.706Z,13.98
2022-11-15T15:25:44.534Z,14.80
2022-11-15T15:28:10.985Z,11.02
2022-11-15T15:30:37.471Z,10.82
2022-11-15T15:33:04.080Z,13.55
2022-11-15T15:35:33.870Z,11.38
2022-11-15T15:38:00.805Z,11.70
2022-11-15T15:40:30.446Z,12.63
2022-11-15T15:42:56.927Z,15.55
2022-11-15T15:45:23.390Z,18.35
2022-11-15T15:47:51.050Z,19.40
2022-11-15T15:50:34.526Z,32.83
2022-11-15T15:53:02.612Z,16.90
2022-11-15T15:55:29.684Z,11.73
2022-11-15T15:57:56.502Z,14.88
2022-11-15T16:00:25.621Z,13.30
2022-11-15T16:02:53.306Z,8.70
2022-11-15T16:05:19.966Z,13.20
2022-11-15T16:07:48.283Z,12.95
2022-11-15T16:10:26.841Z,16.98
2022-11-15T16:12:54.409Z,14.75
2022-11-15T16:15:22.368Z,9.52
2022-11-15T16:17:52.055Z,17.23
2022-11-15T16:20:40.394Z,14.35
2022-11-15T16:23:10.226Z,20.30
2022-11-15T16:25:54.072Z,9.98
2022-11-15T16:28:22.033Z,10.48
2022-11-15T16:30:53.871Z,10.45
2022-11-15T16:33:23.281Z,9.52
2022-11-15T16:35:49.699Z,10.23
2022-11-15T16:38:17.145Z,18.10
2022-11-15T16:40:43.799Z,16.75
2022-11-15T16:43:11.035Z,14.90
2022-11-15T16:45:37.850Z,13.13
2022-11-15T16:48:05.001Z,13.27
2022-11-15T16:50:40.624Z,13.27
2022-11-15T16:53:07.347Z,14.07
2022-11-15T16:55:33.815Z,23.80
2022-11-15T16:58:01.781Z,37.58
2022-11-15T17:00:31.153Z,24.63
2022-11-15T17:02:57.892Z,23.52
2022-11-15T17:05:27.161Z,15.93
2022-11-15T17:07:56.324Z,18.98
2022-11-15T17:10:24.488Z,22.73
2022-11-15T17:12:51.715Z,14.02
2022-11-15T17:15:19.126Z,14.85
2022-11-15T17:17:52.883Z,18.42
2022-11-15T17:20:21.362Z,12.73
2022-11-15T17:25:16.970Z,7.65
2022-11-15T17:27:43.669Z,12.57
2022-11-15T17:30:12.872Z,10.70
2022-11-15T17:32:39.307Z,9.52
2022-11-15T17:35:14.908Z,14.93
2022-11-15T17:37:44.233Z,12.13
2022-11-15T17:40:11.446Z,9.18
2022-11-15T17:42:40.790Z,10.30
2022-11-15T17:45:10.136Z,10.10
2022-11-15T17:47:37.223Z,9.30
2022-11-15T17:50:03.969Z,9.65
2022-11-15T17:52:30.657Z,10.52
2022-11-15T17:54:57.068Z,11.18
2022-11-15T17:57:23.492Z,8.98
2022-11-15T17:59:49.938Z,8.57
2022-11-15T18:02:16.457Z,9.63
2022-11-15T18:04:42.863Z,11.43
2022-11-15T18:07:11.658Z,9.63
2022-11-15T18:09:42.318Z,8.27
2022-11-15T18:12:09.155Z,9.70
2022-11-15T18:14:35.782Z,12.25
2022-11-15T18:17:02.177Z,9.85
2022-11-15T18:19:28.567Z,10.30
2022-11-15T18:21:58.884Z,11.07
2022-11-15T18:24:28.412Z,9.10
2022-11-15T18:26:56.935Z,9.63
2022-11-15T18:31:54.979Z,10.10
2022-11-15T18:34:33.361Z,10.77
2022-11-15T18:37:01.332Z,10.52
2022-11-15T18:39:30.269Z,10.80
2022-11-15T18:41:57.920Z,10.75
2022-11-15T18:44:24.365Z,10.70
2022-11-15T18:46:51.050Z,10.50
2022-11-15T18:49:19.586Z,11.65
2022-11-15T18:54:14.676Z,10.85
2022-11-15T18:56:44.531Z,11.80
2022-11-15T18:59:11.525Z,13.30
2022-11-15T19:01:39.961Z,12.90
2022-11-15T19:04:18.588Z,13.10
2022-11-15T19:06:49.394Z,10.02
2022-11-15T19:09:17.956Z,10.15
2022-11-15T19:14:14.546Z,10.07
2022-11-15T19:16:46.104Z,13.35
2022-11-15T19:19:17.787Z,11.70
2022-11-15T19:21:44.598Z,10.50
2022-11-15T19:24:11.028Z,9.38
2022-11-15T19:26:38.378Z,9.57
2022-11-15T19:29:06.416Z,10.77
2022-11-15T19:31:33.277Z,10.27
2022-11-15T19:34:01.533Z,9.40
2022-11-15T19:36:33.302Z,10.15
2022-11-15T19:39:05.122Z,12.82
2022-11-15T19:41:32.162Z,9.82
2022-11-15T19:43:58.580Z,11.63
2022-11-15T19:46:26.851Z,10.95
2022-11-15T19:48:54.004Z,11.18
2022-11-15T19:51:25.964Z,9.60
2022-11-15T19:53:54.064Z,10.00
2022-11-15T19:56:21.720Z,10.32
2022-11-15T19:58:53.882Z,16.60
2022-11-15T20:01:24.058Z,10.55
2022-11-15T20:03:53.946Z,10.13
2022-11-15T20:06:24.378Z,10.98
2022-11-15T20:08:51.352Z,11.13
2022-11-15T20:11:18.761Z,10.93
2022-11-15T20:13:45.862Z,11.90
2022-11-15T20:16:20.983Z,11.25
2022-11-15T20:18:48.761Z,13.70
2022-11-15T20:21:15.287Z,11.88
2022-11-15T20:23:42.517Z,13.48
2022-11-15T20:26:10.458Z,10.75
2022-11-15T20:28:38.948Z,11.80
2022-11-15T20:33:32.448Z,11.35
2022-11-15T20:36:03.214Z,11.45
2022-11-15T20:38:29.710Z,10.07
2022-11-15T20:41:00.135Z,13.07
2022-11-15T20:43:27.113Z,9.00
2022-11-15T20:45:53.815Z,11.63
2022-11-15T20:48:20.249Z,11.10
2022-11-15T20:50:48.739Z,9.93
2022-11-15T20:55:47.583Z,11.35
2022-11-15T20:58:15.217Z,12.13
2022-11-15T21:00:43.175Z,11.80
2022-11-15T21:03:09.753Z,10.00
2022-11-15T21:05:41.080Z,12.73
2022-11-15T21:08:08.190Z,11.25
2022-11-15T21:10:53.234Z,12.80
2022-11-15T21:13:27.154Z,11.43
2022-11-15T21:15:59.137Z,10.70
2022-11-15T21:18:25.592Z,11.48
2022-11-15T21:20:58.027Z,12.45
2022-11-15T21:23:24.421Z,10.70
2022-11-15T21:25:55.365Z,11.68
2022-11-15T21:28:21.730Z,12.77
2022-11-15T21:30:59.532Z,9.45
2022-11-15T21:33:29.618Z,13.27
2022-11-15T21:35:57.388Z,9.75
2022-11-15T21:38:24.729Z,11.57
2022-11-15T21:40:52.508Z,9.75
2022-11-15T21:43:20.116Z,9.82
2022-11-15T21:46:01.122Z,12.48
2022-11-15T21:48:32.670Z,10.85
2022-11-15T21:51:00.564Z,12.07
2022-11-15T21:53:27.993Z,12.13
2022-11-15T21:55:54.990Z,12.30
2022-11-15T21:58:22.392Z,10.48
2022-11-15T22:01:07.839Z,10.40
2022-11-15T22:03:34.939Z,10.27
2022-11-15T22:06:01.750Z,12.63
2022-11-15T22:08:28.147Z,11.68
2022-11-15T22:10:56.664Z,13.65
2022-11-15T22:13:24.366Z,11.55
2022-11-15T22:15:54.087Z,11.63
2022-11-15T22:18:26.617Z,11.90
2022-11-15T22:20:59.037Z,12.30
2022-11-15T22:23:27.751Z,13.23
2022-11-15T22:25:57.101Z,12.35
2022-11-15T22:28:24.224Z,12.43
2022-11-15T22:30:55.599Z,11.88
2022-11-15T22:33:24.359Z,9.80
2022-11-15T22:35:51.206Z,11.63
2022-11-15T22:38:18.222Z,10.57
2022-11-15T22:40:47.337Z,11.32
2022-11-15T22:43:18.927Z,12.15
2022-11-15T22:45:52.524Z,11.80
2022-11-15T22:48:20.781Z,11.43
2022-11-15T22:50:47.434Z,21.17
2022-11-15T22:53:14.015Z,11.15
2022-11-15T22:55:41.405Z,13.00
2022-11-15T22:58:10.954Z,12.15
2022-11-15T23:00:37.469Z,11.77
2022-11-15T23:03:04.280Z,15.85
2022-11-15T23:05:31.971Z,15.07
2022-11-15T23:08:00.871Z,13.75
2022-11-15T23:10:45.953Z,12.07
2022-11-15T23:13:16.486Z,14.85
2022-11-15T23:16:08.731Z,13.95
2022-11-15T23:18:37.339Z,13.18
2022-11-15T23:23:38.711Z,13.85
2022-11-15T23:26:05.582Z,15.77
2022-11-15T23:28:33.567Z,16.35
2022-11-15T23:31:26.446Z,14.05
2022-11-15T23:33:59.084Z,15.00
2022-11-15T23:36:26.799Z,15.85
2022-11-15T23:38:56.574Z,12.25
2022-11-15T23:41:23.979Z,13.07
2022-11-15T23:43:51.517Z,14.93
2022-11-15T23:46:18.089Z,12.25
2022-11-15T23:48:44.513Z,13.38
2022-11-15T23:51:11.242Z,14.05
2022-11-15T23:53:37.825Z,14.75
2022-11-15T23:56:11.847Z,12.95
2022-11-15T23:58:41.181Z,14.38
